sensor_id;sensor_type;location;lat;lon;timestamp;P1;durP1;ratioP1;P2;durP2;ratioP2
41705;SDS011;27385;51.096;17.190;2023-12-28T00:03:40;85.90;;;31.10;;
41705;SDS011;27385;51.096;17.190;2023-12-28T00:06:31;79.60;;;26.70;;
41705;SDS011;27385;51.096;17.190;2023-12-28T00:09:22;69.00;;;28.00;;
41705;SDS011;27385;51.096;17.190;2023-12-28T00:12:13;69.50;;;26.60;;
41705;SDS011;27385;51.096;17.190;2023-12-28T00:15:04;61.90;;;25.50;;
41705;SDS011;27385;51.096;17.190;2023-12-28T00:17:56;66.10;;;24.00;;
41705;SDS011;27385;51.096;17.190;2023-12-28T00:20:46;64.10;;;24.30;;
41705;SDS011;27385;51.096;17.190;2023-12-28T00:23:38;76.40;;;25.80;;
41705;SDS011;27385;51.096;17.190;2023-12-28T00:26:28;65.60;;;23.40;;
41705;SDS011;27385;51.096;17.190;2023-12-28T00:29:25;61.40;;;23.00;;
41705;SDS011;27385;51.096;17.190;2023-12-28T00:32:17;55.20;;;22.00;;
41705;SDS011;27385;51.096;17.190;2023-12-28T00:37:56;49.50;;;19.60;;
41705;SDS011;27385;51.096;17.190;2023-12-28T00:40:47;56.10;;;22.10;;
41705;SDS011;27385;51.096;17.190;2023-12-28T00:46:27;53.70;;;19.30;;
41705;SDS011;27385;51.096;17.190;2023-12-28T00:52:06;53.90;;;19.60;;
41705;SDS011;27385;51.096;17.190;2023-12-28T00:54:57;50.00;;;18.70;;
41705;SDS011;27385;51.096;17.190;2023-12-28T00:57:48;59.60;;;20.40;;
41705;SDS011;27385;51.096;17.190;2023-12-28T01:03:28;55.90;;;19.40;;
41705;SDS011;27385;51.096;17.190;2023-12-28T01:06:19;57.10;;;18.80;;
41705;SDS011;27385;51.096;17.190;2023-12-28T01:11:59;53.10;;;20.20;;
41705;SDS011;27385;51.096;17.190;2023-12-28T01:14:50;52.10;;;20.30;;
41705;SDS011;27385;51.096;17.190;2023-12-28T01:17:41;57.30;;;21.50;;
41705;SDS011;27385;51.096;17.190;2023-12-28T01:20:32;53.90;;;20.10;;
41705;SDS011;27385;51.096;17.190;2023-12-28T01:23:23;54.20;;;20.40;;
41705;SDS011;27385;51.096;17.190;2023-12-28T01:26:14;50.90;;;18.70;;
41705;SDS011;27385;51.096;17.190;2023-12-28T01:29:05;52.20;;;20.30;;
41705;SDS011;27385;51.096;17.190;2023-12-28T01:31:56;53.50;;;20.60;;
41705;SDS011;27385;51.096;17.190;2023-12-28T01:34:47;59.90;;;21.80;;
41705;SDS011;27385;51.096;17.190;2023-12-28T01:37:39;54.90;;;21.40;;
41705;SDS011;27385;51.096;17.190;2023-12-28T01:43:19;55.60;;;20.30;;
41705;SDS011;27385;51.096;17.190;2023-12-28T01:46:10;49.30;;;20.30;;
41705;SDS011;27385;51.096;17.190;2023-12-28T01:49:05;52.70;;;21.00;;
41705;SDS011;27385;51.096;17.190;2023-12-28T01:51:56;51.90;;;21.10;;
41705;SDS011;27385;51.096;17.190;2023-12-28T01:54:48;45.10;;;18.50;;
41705;SDS011;27385;51.096;17.190;2023-12-28T01:57:39;55.60;;;21.50;;
41705;SDS011;27385;51.096;17.190;2023-12-28T02:00:30;46.70;;;18.20;;
41705;SDS011;27385;51.096;17.190;2023-12-28T02:03:24;47.20;;;19.00;;
41705;SDS011;27385;51.096;17.190;2023-12-28T02:06:15;43.70;;;16.80;;
41705;SDS011;27385;51.096;17.190;2023-12-28T02:09:07;46.40;;;18.40;;
41705;SDS011;27385;51.096;17.190;2023-12-28T02:11:57;43.00;;;18.60;;
41705;SDS011;27385;51.096;17.190;2023-12-28T02:14:48;51.20;;;18.40;;
41705;SDS011;27385;51.096;17.190;2023-12-28T02:17:41;53.00;;;19.40;;
41705;SDS011;27385;51.096;17.190;2023-12-28T02:20:37;46.30;;;17.50;;
41705;SDS011;27385;51.096;17.190;2023-12-28T02:23:31;47.40;;;18.20;;
41705;SDS011;27385;51.096;17.190;2023-12-28T02:26:22;46.30;;;18.50;;
41705;SDS011;27385;51.096;17.190;2023-12-28T02:29:15;48.50;;;19.60;;
41705;SDS011;27385;51.096;17.190;2023-12-28T02:32:06;47.50;;;18.40;;
41705;SDS011;27385;51.096;17.190;2023-12-28T02:35:01;44.80;;;18.40;;
41705;SDS011;27385;51.096;17.190;2023-12-28T02:38:01;41.20;;;16.00;;
41705;SDS011;27385;51.096;17.190;2023-12-28T02:40:54;49.60;;;17.40;;
41705;SDS011;27385;51.096;17.190;2023-12-28T02:43:47;36.30;;;16.30;;
41705;SDS011;27385;51.096;17.190;2023-12-28T02:46:40;43.90;;;16.20;;
41705;SDS011;27385;51.096;17.190;2023-12-28T02:49:31;44.80;;;15.80;;
41705;SDS011;27385;51.096;17.190;2023-12-28T02:52:21;37.50;;;14.00;;
41705;SDS011;27385;51.096;17.190;2023-12-28T02:55:12;37.50;;;14.10;;
41705;SDS011;27385;51.096;17.190;2023-12-28T03:00:53;41.10;;;13.90;;
41705;SDS011;27385;51.096;17.190;2023-12-28T03:03:44;39.90;;;14.60;;
41705;SDS011;27385;51.096;17.190;2023-12-28T03:09:25;42.20;;;14.80;;
41705;SDS011;27385;51.096;17.190;2023-12-28T03:12:16;42.00;;;16.50;;
41705;SDS011;27385;51.096;17.190;2023-12-28T03:15:08;45.00;;;16.00;;
41705;SDS011;27385;51.096;17.190;2023-12-28T03:17:58;40.60;;;15.40;;
41705;SDS011;27385;51.096;17.190;2023-12-28T03:20:49;38.20;;;15.90;;
41705;SDS011;27385;51.096;17.190;2023-12-28T03:23:40;41.00;;;14.30;;
41705;SDS011;27385;51.096;17.190;2023-12-28T03:26:31;40.30;;;15.20;;
41705;SDS011;27385;51.096;17.190;2023-12-28T03:29:23;37.60;;;14.60;;
41705;SDS011;27385;51.096;17.190;2023-12-28T03:32:15;34.40;;;13.90;;
41705;SDS011;27385;51.096;17.190;2023-12-28T03:35:07;37.50;;;14.50;;
41705;SDS011;27385;51.096;17.190;2023-12-28T03:37:58;43.40;;;15.80;;
41705;SDS011;27385;51.096;17.190;2023-12-28T03:40:48;36.20;;;13.60;;
41705;SDS011;27385;51.096;17.190;2023-12-28T03:43:40;35.30;;;13.30;;
41705;SDS011;27385;51.096;17.190;2023-12-28T03:46:30;26.10;;;10.40;;
41705;SDS011;27385;51.096;17.190;2023-12-28T03:52:10;17.80;;;5.20;;
41705;SDS011;27385;51.096;17.190;2023-12-28T03:55:01;18.90;;;4.40;;
41705;SDS011;27385;51.096;17.190;2023-12-28T03:57:52;18.90;;;6.00;;
41705;SDS011;27385;51.096;17.190;2023-12-28T04:00:43;14.30;;;3.70;;
41705;SDS011;27385;51.096;17.190;2023-12-28T04:03:34;12.50;;;2.90;;
41705;SDS011;27385;51.096;17.190;2023-12-28T04:06:25;11.30;;;3.00;;
41705;SDS011;27385;51.096;17.190;2023-12-28T04:09:16;12.60;;;1.90;;
41705;SDS011;27385;51.096;17.190;2023-12-28T04:12:08;11.40;;;2.20;;
41705;SDS011;27385;51.096;17.190;2023-12-28T04:14:59;8.30;;;2.00;;
41705;SDS011;27385;51.096;17.190;2023-12-28T04:17:50;10.90;;;1.90;;
41705;SDS011;27385;51.096;17.190;2023-12-28T04:20:43;9.00;;;1.90;;
41705;SDS011;27385;51.096;17.190;2023-12-28T04:23:34;11.30;;;2.30;;
41705;SDS011;27385;51.096;17.190;2023-12-28T04:26:26;9.50;;;2.30;;
41705;SDS011;27385;51.096;17.190;2023-12-28T04:29:18;9.70;;;1.80;;
41705;SDS011;27385;51.096;17.190;2023-12-28T04:32:09;11.30;;;2.30;;
41705;SDS011;27385;51.096;17.190;2023-12-28T04:35:00;9.90;;;1.60;;
41705;SDS011;27385;51.096;17.190;2023-12-28T04:37:51;9.70;;;2.00;;
41705;SDS011;27385;51.096;17.190;2023-12-28T04:43:31;5.70;;;1.40;;
41705;SDS011;27385;51.096;17.190;2023-12-28T04:46:21;10.90;;;1.90;;
41705;SDS011;27385;51.096;17.190;2023-12-28T04:49:12;8.70;;;1.80;;
41705;SDS011;27385;51.096;17.190;2023-12-28T04:54:52;8.20;;;1.80;;
41705;SDS011;27385;51.096;17.190;2023-12-28T04:57:43;9.90;;;1.90;;
41705;SDS011;27385;51.096;17.190;2023-12-28T05:03:23;10.40;;;1.90;;
41705;SDS011;27385;51.096;17.190;2023-12-28T05:06:14;7.70;;;1.70;;
41705;SDS011;27385;51.096;17.190;2023-12-28T05:09:06;8.60;;;1.80;;
41705;SDS011;27385;51.096;17.190;2023-12-28T05:11:57;6.80;;;1.70;;
41705;SDS011;27385;51.096;17.190;2023-12-28T05:14:48;9.60;;;1.50;;
41705;SDS011;27385;51.096;17.190;2023-12-28T05:17:39;7.50;;;1.40;;
41705;SDS011;27385;51.096;17.190;2023-12-28T05:20:31;11.30;;;1.70;;
41705;SDS011;27385;51.096;17.190;2023-12-28T05:23:22;9.40;;;1.60;;
41705;SDS011;27385;51.096;17.190;2023-12-28T05:29:02;6.10;;;1.10;;
41705;SDS011;27385;51.096;17.190;2023-12-28T05:31:53;11.20;;;2.10;;
41705;SDS011;27385;51.096;17.190;2023-12-28T05:34:43;11.20;;;1.90;;
41705;SDS011;27385;51.096;17.190;2023-12-28T05:37:35;7.00;;;1.60;;
41705;SDS011;27385;51.096;17.190;2023-12-28T05:40:26;7.90;;;1.80;;
41705;SDS011;27385;51.096;17.190;2023-12-28T05:43:17;8.20;;;2.10;;
41705;SDS011;27385;51.096;17.190;2023-12-28T05:46:07;9.70;;;2.60;;
41705;SDS011;27385;51.096;17.190;2023-12-28T05:48:58;7.90;;;1.60;;
41705;SDS011;27385;51.096;17.190;2023-12-28T05:51:49;11.20;;;2.00;;
41705;SDS011;27385;51.096;17.190;2023-12-28T05:54:40;8.00;;;1.90;;
41705;SDS011;27385;51.096;17.190;2023-12-28T05:57:31;7.70;;;1.80;;
41705;SDS011;27385;51.096;17.190;2023-12-28T06:00:23;11.20;;;2.50;;
41705;SDS011;27385;51.096;17.190;2023-12-28T06:03:14;8.70;;;1.50;;
41705;SDS011;27385;51.096;17.190;2023-12-28T06:08:54;9.00;;;1.70;;
41705;SDS011;27385;51.096;17.190;2023-12-28T06:11:46;12.30;;;3.00;;
41705;SDS011;27385;51.096;17.190;2023-12-28T06:14:37;9.20;;;2.10;;
41705;SDS011;27385;51.096;17.190;2023-12-28T06:17:27;14.50;;;2.30;;
41705;SDS011;27385;51.096;17.190;2023-12-28T06:23:07;9.20;;;2.50;;
41705;SDS011;27385;51.096;17.190;2023-12-28T06:25:58;13.30;;;2.30;;
41705;SDS011;27385;51.096;17.190;2023-12-28T06:28:52;14.10;;;2.30;;
41705;SDS011;27385;51.096;17.190;2023-12-28T06:31:43;17.40;;;3.10;;
41705;SDS011;27385;51.096;17.190;2023-12-28T06:34:34;17.30;;;3.60;;
41705;SDS011;27385;51.096;17.190;2023-12-28T06:37:25;13.90;;;3.00;;
41705;SDS011;27385;51.096;17.190;2023-12-28T06:40:16;19.80;;;3.20;;
41705;SDS011;27385;51.096;17.190;2023-12-28T06:43:07;13.30;;;3.50;;
41705;SDS011;27385;51.096;17.190;2023-12-28T06:45:57;14.90;;;3.80;;
41705;SDS011;27385;51.096;17.190;2023-12-28T06:48:48;15.80;;;3.50;;
41705;SDS011;27385;51.096;17.190;2023-12-28T06:51:39;13.10;;;2.70;;
41705;SDS011;27385;51.096;17.190;2023-12-28T06:54:33;12.10;;;2.60;;
41705;SDS011;27385;51.096;17.190;2023-12-28T06:57:24;11.80;;;2.30;;
41705;SDS011;27385;51.096;17.190;2023-12-28T07:00:16;14.50;;;2.90;;
41705;SDS011;27385;51.096;17.190;2023-12-28T07:03:07;14.30;;;3.80;;
41705;SDS011;27385;51.096;17.190;2023-12-28T07:05:58;14.60;;;3.50;;
41705;SDS011;27385;51.096;17.190;2023-12-28T07:08:50;16.10;;;4.00;;
41705;SDS011;27385;51.096;17.190;2023-12-28T07:11:41;16.70;;;5.30;;
41705;SDS011;27385;51.096;17.190;2023-12-28T07:14:32;19.90;;;6.60;;
41705;SDS011;27385;51.096;17.190;2023-12-28T07:17:24;17.30;;;5.40;;
41705;SDS011;27385;51.096;17.190;2023-12-28T07:20:15;20.30;;;5.00;;
41705;SDS011;27385;51.096;17.190;2023-12-28T07:23:06;18.40;;;4.40;;
41705;SDS011;27385;51.096;17.190;2023-12-28T07:25:58;16.10;;;3.90;;
41705;SDS011;27385;51.096;17.190;2023-12-28T07:28:49;12.30;;;3.30;;
41705;SDS011;27385;51.096;17.190;2023-12-28T07:31:40;15.80;;;3.10;;
41705;SDS011;27385;51.096;17.190;2023-12-28T07:34:31;14.70;;;3.40;;
41705;SDS011;27385;51.096;17.190;2023-12-28T07:37:21;13.60;;;2.50;;
41705;SDS011;27385;51.096;17.190;2023-12-28T07:40:12;10.60;;;2.40;;
41705;SDS011;27385;51.096;17.190;2023-12-28T07:43:03;12.40;;;2.80;;
41705;SDS011;27385;51.096;17.190;2023-12-28T07:45:54;13.80;;;2.60;;
41705;SDS011;27385;51.096;17.190;2023-12-28T07:48:45;13.70;;;3.00;;
41705;SDS011;27385;51.096;17.190;2023-12-28T07:51:36;14.70;;;2.60;;
41705;SDS011;27385;51.096;17.190;2023-12-28T07:54:27;13.90;;;2.70;;
41705;SDS011;27385;51.096;17.190;2023-12-28T07:57:19;13.90;;;2.70;;
41705;SDS011;27385;51.096;17.190;2023-12-28T08:00:10;14.40;;;3.10;;
41705;SDS011;27385;51.096;17.190;2023-12-28T08:03:02;16.30;;;3.40;;
41705;SDS011;27385;51.096;17.190;2023-12-28T08:05:53;15.80;;;3.80;;
41705;SDS011;27385;51.096;17.190;2023-12-28T08:08:44;16.10;;;4.10;;
41705;SDS011;27385;51.096;17.190;2023-12-28T08:11:35;16.30;;;3.30;;
41705;SDS011;27385;51.096;17.190;2023-12-28T08:14:26;14.20;;;3.30;;
41705;SDS011;27385;51.096;17.190;2023-12-28T08:17:17;12.10;;;2.40;;
41705;SDS011;27385;51.096;17.190;2023-12-28T08:20:09;11.30;;;3.10;;
41705;SDS011;27385;51.096;17.190;2023-12-28T08:23:00;13.00;;;2.90;;
41705;SDS011;27385;51.096;17.190;2023-12-28T08:25:51;11.40;;;2.30;;
41705;SDS011;27385;51.096;17.190;2023-12-28T08:28:42;11.40;;;1.90;;
41705;SDS011;27385;51.096;17.190;2023-12-28T08:31:33;13.40;;;2.30;;
41705;SDS011;27385;51.096;17.190;2023-12-28T08:34:24;11.40;;;2.40;;
41705;SDS011;27385;51.096;17.190;2023-12-28T08:37:15;10.80;;;2.30;;
41705;SDS011;27385;51.096;17.190;2023-12-28T08:40:07;13.40;;;2.20;;
41705;SDS011;27385;51.096;17.190;2023-12-28T08:42:58;11.20;;;2.40;;
41705;SDS011;27385;51.096;17.190;2023-12-28T08:45:49;15.70;;;3.70;;
41705;SDS011;27385;51.096;17.190;2023-12-28T08:48:40;14.30;;;3.70;;
41705;SDS011;27385;51.096;17.190;2023-12-28T08:51:31;12.60;;;2.20;;
41705;SDS011;27385;51.096;17.190;2023-12-28T08:54:21;17.80;;;2.50;;
41705;SDS011;27385;51.096;17.190;2023-12-28T08:57:12;8.50;;;1.70;;
41705;SDS011;27385;51.096;17.190;2023-12-28T09:00:03;8.70;;;1.40;;
41705;SDS011;27385;51.096;17.190;2023-12-28T09:02:55;8.50;;;1.30;;
41705;SDS011;27385;51.096;17.190;2023-12-28T09:05:46;9.00;;;1.20;;
41705;SDS011;27385;51.096;17.190;2023-12-28T09:08:37;6.20;;;1.20;;
41705;SDS011;27385;51.096;17.190;2023-12-28T09:11:29;6.00;;;1.20;;
41705;SDS011;27385;51.096;17.190;2023-12-28T09:14:20;7.10;;;1.20;;
41705;SDS011;27385;51.096;17.190;2023-12-28T09:17:10;6.60;;;1.20;;
41705;SDS011;27385;51.096;17.190;2023-12-28T09:20:01;5.60;;;1.10;;
41705;SDS011;27385;51.096;17.190;2023-12-28T09:22:54;8.30;;;1.30;;
41705;SDS011;27385;51.096;17.190;2023-12-28T09:25:44;7.60;;;1.40;;
41705;SDS011;27385;51.096;17.190;2023-12-28T09:28:36;8.50;;;1.40;;
41705;SDS011;27385;51.096;17.190;2023-12-28T09:31:28;7.60;;;1.60;;
41705;SDS011;27385;51.096;17.190;2023-12-28T09:37:08;6.80;;;1.60;;
41705;SDS011;27385;51.096;17.190;2023-12-28T09:39:59;6.20;;;1.40;;
41705;SDS011;27385;51.096;17.190;2023-12-28T09:42:53;8.50;;;1.40;;
41705;SDS011;27385;51.096;17.190;2023-12-28T09:45:52;10.20;;;1.50;;
41705;SDS011;27385;51.096;17.190;2023-12-28T09:48:43;8.50;;;1.60;;
41705;SDS011;27385;51.096;17.190;2023-12-28T09:51:34;8.30;;;1.70;;
41705;SDS011;27385;51.096;17.190;2023-12-28T09:54:25;8.90;;;1.40;;
41705;SDS011;27385;51.096;17.190;2023-12-28T09:57:16;9.70;;;1.20;;
41705;SDS011;27385;51.096;17.190;2023-12-28T10:00:08;8.10;;;1.40;;
41705;SDS011;27385;51.096;17.190;2023-12-28T10:03:01;8.90;;;1.10;;
41705;SDS011;27385;51.096;17.190;2023-12-28T10:05:52;7.50;;;1.40;;
41705;SDS011;27385;51.096;17.190;2023-12-28T10:08:46;7.80;;;1.30;;
41705;SDS011;27385;51.096;17.190;2023-12-28T10:11:38;6.00;;;1.40;;
41705;SDS011;27385;51.096;17.190;2023-12-28T10:14:29;6.50;;;1.30;;
41705;SDS011;27385;51.096;17.190;2023-12-28T10:17:20;8.10;;;1.60;;
41705;SDS011;27385;51.096;17.190;2023-12-28T10:23:00;7.80;;;1.40;;
41705;SDS011;27385;51.096;17.190;2023-12-28T10:25:51;7.50;;;1.20;;
41705;SDS011;27385;51.096;17.190;2023-12-28T10:28:44;8.90;;;1.50;;
41705;SDS011;27385;51.096;17.190;2023-12-28T10:31:35;7.30;;;1.30;;
41705;SDS011;27385;51.096;17.190;2023-12-28T10:34:30;5.90;;;1.20;;
41705;SDS011;27385;51.096;17.190;2023-12-28T10:37:21;6.00;;;1.10;;
41705;SDS011;27385;51.096;17.190;2023-12-28T10:40:14;6.50;;;1.30;;
41705;SDS011;27385;51.096;17.190;2023-12-28T10:43:07;6.00;;;1.00;;
41705;SDS011;27385;51.096;17.190;2023-12-28T10:46:00;5.60;;;1.20;;
41705;SDS011;27385;51.096;17.190;2023-12-28T10:48:52;8.80;;;1.20;;
41705;SDS011;27385;51.096;17.190;2023-12-28T10:51:46;6.90;;;1.20;;
41705;SDS011;27385;51.096;17.190;2023-12-28T10:54:46;9.70;;;1.50;;
41705;SDS011;27385;51.096;17.190;2023-12-28T10:57:47;7.90;;;1.10;;
41705;SDS011;27385;51.096;17.190;2023-12-28T11:00:49;6.70;;;1.30;;
41705;SDS011;27385;51.096;17.190;2023-12-28T11:03:45;5.60;;;1.30;;
41705;SDS011;27385;51.096;17.190;2023-12-28T11:06:41;11.40;;;1.50;;
41705;SDS011;27385;51.096;17.190;2023-12-28T11:09:34;5.50;;;1.00;;
41705;SDS011;27385;51.096;17.190;2023-12-28T11:12:26;7.90;;;1.10;;
41705;SDS011;27385;51.096;17.190;2023-12-28T11:15:17;6.80;;;1.10;;
41705;SDS011;27385;51.096;17.190;2023-12-28T11:18:09;6.30;;;1.20;;
41705;SDS011;27385;51.096;17.190;2023-12-28T11:21:02;5.00;;;1.20;;
41705;SDS011;27385;51.096;17.190;2023-12-28T11:23:54;5.30;;;1.10;;
41705;SDS011;27385;51.096;17.190;2023-12-28T11:26:45;9.10;;;1.30;;
41705;SDS011;27385;51.096;17.190;2023-12-28T11:29:42;7.30;;;1.60;;
41705;SDS011;27385;51.096;17.190;2023-12-28T11:32:34;8.20;;;1.40;;
41705;SDS011;27385;51.096;17.190;2023-12-28T11:35:33;14.10;;;2.70;;
41705;SDS011;27385;51.096;17.190;2023-12-28T11:38:25;15.00;;;3.60;;
41705;SDS011;27385;51.096;17.190;2023-12-28T11:41:17;13.00;;;2.60;;
41705;SDS011;27385;51.096;17.190;2023-12-28T11:44:10;13.60;;;3.10;;
41705;SDS011;27385;51.096;17.190;2023-12-28T11:47:10;13.70;;;3.00;;
41705;SDS011;27385;51.096;17.190;2023-12-28T11:50:07;11.50;;;2.20;;
41705;SDS011;27385;51.096;17.190;2023-12-28T11:52:59;13.30;;;2.30;;
41705;SDS011;27385;51.096;17.190;2023-12-28T11:55:50;12.00;;;2.10;;
41705;SDS011;27385;51.096;17.190;2023-12-28T11:58:48;9.70;;;2.00;;
41705;SDS011;27385;51.096;17.190;2023-12-28T12:01:38;9.00;;;2.00;;
41705;SDS011;27385;51.096;17.190;2023-12-28T12:04:29;11.80;;;2.50;;
41705;SDS011;27385;51.096;17.190;2023-12-28T12:07:23;13.30;;;2.30;;
41705;SDS011;27385;51.096;17.190;2023-12-28T12:10:15;13.40;;;2.30;;
41705;SDS011;27385;51.096;17.190;2023-12-28T12:13:06;11.20;;;2.20;;
41705;SDS011;27385;51.096;17.190;2023-12-28T12:15:57;12.00;;;2.60;;
41705;SDS011;27385;51.096;17.190;2023-12-28T12:18:53;10.20;;;2.10;;
41705;SDS011;27385;51.096;17.190;2023-12-28T12:21:44;13.20;;;2.50;;
41705;SDS011;27385;51.096;17.190;2023-12-28T12:24:36;11.80;;;2.10;;
41705;SDS011;27385;51.096;17.190;2023-12-28T12:27:29;9.40;;;1.90;;
41705;SDS011;27385;51.096;17.190;2023-12-28T12:30:22;11.20;;;2.00;;
41705;SDS011;27385;51.096;17.190;2023-12-28T12:33:13;14.80;;;2.70;;
41705;SDS011;27385;51.096;17.190;2023-12-28T12:36:04;10.90;;;2.30;;
41705;SDS011;27385;51.096;17.190;2023-12-28T12:38:56;13.60;;;2.70;;
41705;SDS011;27385;51.096;17.190;2023-12-28T12:41:47;11.90;;;2.30;;
41705;SDS011;27385;51.096;17.190;2023-12-28T12:44:38;13.50;;;2.30;;
41705;SDS011;27385;51.096;17.190;2023-12-28T12:47:33;13.00;;;2.40;;
41705;SDS011;27385;51.096;17.190;2023-12-28T12:50:24;10.70;;;2.10;;
41705;SDS011;27385;51.096;17.190;2023-12-28T12:53:15;14.10;;;2.90;;
41705;SDS011;27385;51.096;17.190;2023-12-28T12:56:06;11.60;;;2.20;;
41705;SDS011;27385;51.096;17.190;2023-12-28T12:58:57;15.90;;;2.80;;
41705;SDS011;27385;51.096;17.190;2023-12-28T13:01:48;16.60;;;4.30;;
41705;SDS011;27385;51.096;17.190;2023-12-28T13:04:44;14.80;;;3.20;;
41705;SDS011;27385;51.096;17.190;2023-12-28T13:07:34;11.70;;;2.60;;
41705;SDS011;27385;51.096;17.190;2023-12-28T13:10:26;12.70;;;2.40;;
41705;SDS011;27385;51.096;17.190;2023-12-28T13:13:17;16.30;;;2.80;;
41705;SDS011;27385;51.096;17.190;2023-12-28T13:16:08;12.10;;;2.50;;
41705;SDS011;27385;51.096;17.190;2023-12-28T13:18:59;11.30;;;2.50;;
41705;SDS011;27385;51.096;17.190;2023-12-28T13:21:50;13.50;;;2.50;;
41705;SDS011;27385;51.096;17.190;2023-12-28T13:24:41;11.40;;;2.00;;
41705;SDS011;27385;51.096;17.190;2023-12-28T13:27:32;10.00;;;2.10;;
41705;SDS011;27385;51.096;17.190;2023-12-28T13:30:22;13.10;;;2.80;;
41705;SDS011;27385;51.096;17.190;2023-12-28T13:33:16;11.00;;;2.20;;
41705;SDS011;27385;51.096;17.190;2023-12-28T13:36:07;9.50;;;2.10;;
41705;SDS011;27385;51.096;17.190;2023-12-28T13:38:57;9.70;;;2.20;;
41705;SDS011;27385;51.096;17.190;2023-12-28T13:41:48;9.80;;;2.30;;
41705;SDS011;27385;51.096;17.190;2023-12-28T13:44:39;9.00;;;2.20;;
41705;SDS011;27385;51.096;17.190;2023-12-28T13:47:31;17.70;;;3.30;;
41705;SDS011;27385;51.096;17.190;2023-12-28T13:50:22;17.10;;;4.30;;
41705;SDS011;27385;51.096;17.190;2023-12-28T13:53:13;18.90;;;4.60;;
41705;SDS011;27385;51.096;17.190;2023-12-28T13:56:04;22.00;;;4.50;;
41705;SDS011;27385;51.096;17.190;2023-12-28T13:58:57;21.50;;;5.20;;
41705;SDS011;27385;51.096;17.190;2023-12-28T14:01:47;18.00;;;5.70;;
41705;SDS011;27385;51.096;17.190;2023-12-28T14:04:38;18.20;;;5.50;;
41705;SDS011;27385;51.096;17.190;2023-12-28T14:07:29;20.30;;;5.20;;
41705;SDS011;27385;51.096;17.190;2023-12-28T14:10:20;20.90;;;4.90;;
41705;SDS011;27385;51.096;17.190;2023-12-28T14:13:11;19.10;;;4.80;;
41705;SDS011;27385;51.096;17.190;2023-12-28T14:16:02;17.50;;;5.00;;
41705;SDS011;27385;51.096;17.190;2023-12-28T14:18:53;23.50;;;6.20;;
41705;SDS011;27385;51.096;17.190;2023-12-28T14:21:44;22.30;;;6.90;;
41705;SDS011;27385;51.096;17.190;2023-12-28T14:24:36;25.50;;;6.90;;
41705;SDS011;27385;51.096;17.190;2023-12-28T14:27:29;25.00;;;7.60;;
41705;SDS011;27385;51.096;17.190;2023-12-28T14:30:22;27.90;;;6.70;;
41705;SDS011;27385;51.096;17.190;2023-12-28T14:33:13;20.90;;;6.00;;
41705;SDS011;27385;51.096;17.190;2023-12-28T14:36:05;21.40;;;6.60;;
41705;SDS011;27385;51.096;17.190;2023-12-28T14:39:05;20.90;;;6.00;;
41705;SDS011;27385;51.096;17.190;2023-12-28T14:41:57;19.10;;;4.80;;
41705;SDS011;27385;51.096;17.190;2023-12-28T14:44:51;20.20;;;5.40;;
41705;SDS011;27385;51.096;17.190;2023-12-28T14:50:31;20.50;;;5.50;;
41705;SDS011;27385;51.096;17.190;2023-12-28T14:53:23;19.90;;;6.40;;
41705;SDS011;27385;51.096;17.190;2023-12-28T14:56:14;20.50;;;6.10;;
41705;SDS011;27385;51.096;17.190;2023-12-28T14:59:05;20.40;;;5.90;;
41705;SDS011;27385;51.096;17.190;2023-12-28T15:01:56;25.80;;;8.00;;
41705;SDS011;27385;51.096;17.190;2023-12-28T15:07:35;22.90;;;6.40;;
41705;SDS011;27385;51.096;17.190;2023-12-28T15:10:26;20.10;;;6.70;;
41705;SDS011;27385;51.096;17.190;2023-12-28T15:13:18;27.50;;;7.50;;
41705;SDS011;27385;51.096;17.190;2023-12-28T15:16:11;23.70;;;7.80;;
41705;SDS011;27385;51.096;17.190;2023-12-28T15:19:03;41.40;;;14.30;;
41705;SDS011;27385;51.096;17.190;2023-12-28T15:21:56;38.20;;;16.00;;
41705;SDS011;27385;51.096;17.190;2023-12-28T15:24:47;50.70;;;19.80;;
41705;SDS011;27385;51.096;17.190;2023-12-28T15:27:39;44.40;;;17.90;;
41705;SDS011;27385;51.096;17.190;2023-12-28T15:30:30;43.00;;;17.60;;
41705;SDS011;27385;51.096;17.190;2023-12-28T15:33:22;45.90;;;15.80;;
41705;SDS011;27385;51.096;17.190;2023-12-28T15:36:13;40.20;;;14.70;;
41705;SDS011;27385;51.096;17.190;2023-12-28T15:39:04;38.40;;;14.80;;
41705;SDS011;27385;51.096;17.190;2023-12-28T15:41:55;32.40;;;12.00;;
41705;SDS011;27385;51.096;17.190;2023-12-28T15:44:45;34.50;;;12.60;;
41705;SDS011;27385;51.096;17.190;2023-12-28T15:47:37;28.10;;;10.30;;
41705;SDS011;27385;51.096;17.190;2023-12-28T15:50:28;30.20;;;10.30;;
41705;SDS011;27385;51.096;17.190;2023-12-28T15:53:19;31.60;;;9.90;;
41705;SDS011;27385;51.096;17.190;2023-12-28T15:58:58;27.70;;;8.90;;
41705;SDS011;27385;51.096;17.190;2023-12-28T16:01:50;22.30;;;7.20;;
41705;SDS011;27385;51.096;17.190;2023-12-28T16:04:41;21.90;;;7.30;;
41705;SDS011;27385;51.096;17.190;2023-12-28T16:07:31;24.80;;;6.80;;
41705;SDS011;27385;51.096;17.190;2023-12-28T16:10:22;17.80;;;5.80;;
41705;SDS011;27385;51.096;17.190;2023-12-28T16:13:14;17.40;;;5.10;;
41705;SDS011;27385;51.096;17.190;2023-12-28T16:16:06;19.30;;;4.70;;
41705;SDS011;27385;51.096;17.190;2023-12-28T16:18:59;17.60;;;4.60;;
41705;SDS011;27385;51.096;17.190;2023-12-28T16:21:52;17.90;;;4.60;;
41705;SDS011;27385;51.096;17.190;2023-12-28T16:24:43;16.90;;;5.40;;
41705;SDS011;27385;51.096;17.190;2023-12-28T16:27:34;23.70;;;6.50;;
41705;SDS011;27385;51.096;17.190;2023-12-28T16:30:26;17.30;;;5.40;;
41705;SDS011;27385;51.096;17.190;2023-12-28T16:36:07;17.30;;;5.60;;
41705;SDS011;27385;51.096;17.190;2023-12-28T16:38:59;21.40;;;7.10;;
41705;SDS011;27385;51.096;17.190;2023-12-28T16:41:50;17.20;;;5.40;;
41705;SDS011;27385;51.096;17.190;2023-12-28T16:44:42;24.70;;;8.40;;
41705;SDS011;27385;51.096;17.190;2023-12-28T16:47:33;26.30;;;9.20;;
41705;SDS011;27385;51.096;17.190;2023-12-28T16:50:24;24.10;;;8.30;;
41705;SDS011;27385;51.096;17.190;2023-12-28T16:53:15;24.50;;;7.80;;
41705;SDS011;27385;51.096;17.190;2023-12-28T16:56:06;21.60;;;7.10;;
41705;SDS011;27385;51.096;17.190;2023-12-28T16:58:57;26.50;;;6.80;;
41705;SDS011;27385;51.096;17.190;2023-12-28T17:01:49;21.10;;;7.90;;
41705;SDS011;27385;51.096;17.190;2023-12-28T17:04:40;27.90;;;9.60;;
41705;SDS011;27385;51.096;17.190;2023-12-28T17:07:31;24.90;;;10.20;;
41705;SDS011;27385;51.096;17.190;2023-12-28T17:10:24;25.50;;;7.50;;
41705;SDS011;27385;51.096;17.190;2023-12-28T17:13:16;30.10;;;10.60;;
41705;SDS011;27385;51.096;17.190;2023-12-28T17:16:10;25.20;;;9.00;;
41705;SDS011;27385;51.096;17.190;2023-12-28T17:19:02;22.30;;;9.00;;
41705;SDS011;27385;51.096;17.190;2023-12-28T17:21:54;23.80;;;8.90;;
41705;SDS011;27385;51.096;17.190;2023-12-28T17:24:53;27.20;;;9.80;;
41705;SDS011;27385;51.096;17.190;2023-12-28T17:27:52;20.40;;;7.60;;
41705;SDS011;27385;51.096;17.190;2023-12-28T17:30:45;21.60;;;8.60;;
41705;SDS011;27385;51.096;17.190;2023-12-28T17:33:41;28.90;;;9.50;;
41705;SDS011;27385;51.096;17.190;2023-12-28T17:36:33;28.30;;;11.10;;
41705;SDS011;27385;51.096;17.190;2023-12-28T17:39:27;34.40;;;13.30;;
41705;SDS011;27385;51.096;17.190;2023-12-28T17:42:20;36.80;;;13.80;;
41705;SDS011;27385;51.096;17.190;2023-12-28T17:45:17;32.90;;;12.20;;